Time;durP1;ratioP1;P1;durP2;ratioP2;P2;SDS_P1;SDS_P2;PMS_P1;PMS_P2;Temp;Humidity;BMP_temperature;BMP_pressure;BME280_temperature;BME280_humidity;BME280_pressure;Samples;Min_cycle;Max_cycle;Signal;HPM_P1;HPM_P2
2023/08/28 00:01:58;;;;;;;3.60;3.00;;;10.90;99.90;;;;;;4847334;29;20250;-82
2023/08/28 00:04:24;;;;;;;3.50;3.20;;;10.90;99.90;;;;;;4847571;29;20185;-82
2023/08/28 00:06:50;;;;;;;3.50;3.20;;;10.90;99.90;;;;;;4847499;29;20613;-81
2023/08/28 00:09:16;;;;;;;3.50;3.20;;;10.80;99.90;;;;;;4847288;29;20212;-82
2023/08/28 00:11:42;;;;;;;8.00;3.58;;;10.70;99.90;;;;;;4847360;29;20473;-82
2023/08/28 00:14:08;;;;;;;4.33;3.30;;;10.70;99.90;;;;;;4847056;29;20196;-82
2023/08/28 00:16:33;;;;;;;5.00;3.70;;;10.70;99.90;;;;;;4846870;29;20193;-82
2023/08/28 00:18:59;;;;;;;10.37;4.33;;;10.80;99.90;;;;;;4846971;29;20669;-82
2023/08/28 00:21:25;;;;;;;4.07;3.73;;;10.80;99.90;;;;;;4847197;29;20181;-82
2023/08/28 00:23:50;;;;;;;4.50;4.10;;;10.80;99.90;;;;;;4846499;29;20196;-82
2023/08/28 00:26:16;;;;;;;3.90;3.47;;;10.80;99.90;;;;;;4847299;29;20229;-82
2023/08/28 00:28:42;;;;;;;4.45;3.20;;;10.80;99.90;;;;;;4846880;29;20204;-82
2023/08/28 00:31:07;;;;;;;4.67;3.07;;;10.80;99.90;;;;;;4846978;29;20205;-82
2023/08/28 00:33:33;;;;;;;4.00;3.50;;;10.80;99.90;;;;;;4847231;29;20272;-82
2023/08/28 00:35:59;;;;;;;4.37;4.00;;;10.70;99.90;;;;;;4846372;29;20188;-82
2023/08/28 00:38:24;;;;;;;5.30;3.60;;;10.70;99.90;;;;;;4849617;29;20189;-82
2023/08/28 00:40:50;;;;;;;3.97;3.60;;;10.70;99.90;;;;;;4850104;29;20222;-82
2023/08/28 00:43:15;;;;;;;4.97;4.43;;;10.70;99.90;;;;;;4849256;29;20268;-81
2023/08/28 00:45:42;;;;;;;4.93;4.10;;;10.60;99.90;;;;;;4847949;29;20212;-82
2023/08/28 00:48:10;;;;;;;4.28;3.45;;;10.60;99.90;;;;;;4847262;29;20200;-82
2023/08/28 00:50:37;;;;;;;3.88;2.90;;;10.60;99.90;;;;;;4846511;29;20224;-86
2023/08/28 00:53:03;;;;;;;4.33;3.53;;;10.60;99.90;;;;;;4846963;29;20185;-82
2023/08/28 00:55:30;;;;;;;7.30;3.58;;;10.60;99.90;;;;;;4846404;29;20441;-83
2023/08/28 00:57:56;;;;;;;5.65;3.92;;;10.50;99.90;;;;;;4845309;29;20236;-82
2023/08/28 01:00:21;;;;;;;4.50;3.47;;;10.50;99.90;;;;;;4845846;29;20193;-82
2023/08/28 01:02:48;;;;;;;5.00;4.53;;;10.50;99.90;;;;;;4846799;29;20188;-82
2023/08/28 01:05:16;;;;;;;5.10;3.70;;;10.50;99.90;;;;;;4846277;29;20209;-82
2023/08/28 01:07:51;;;;;;;6.88;4.60;;;10.50;99.90;;;;;;4846401;29;20645;-82
2023/08/28 01:10:26;;;;;;;4.47;4.07;;;10.50;99.90;;;;;;4846523;29;20225;-82
2023/08/28 01:13:25;;;;;;;4.68;4.15;;;10.50;99.90;;;;;;4845660;29;20196;-82
2023/08/28 01:15:53;;;;;;;4.88;3.60;;;10.50;99.90;;;;;;4846052;29;20260;-82
2023/08/28 01:18:20;;;;;;;5.88;4.20;;;10.50;99.90;;;;;;4846409;29;20276;-82
2023/08/28 01:20:47;;;;;;;5.80;3.55;;;10.50;99.90;;;;;;4846362;29;20227;-82
2023/08/28 01:23:28;;;;;;;4.10;3.70;;;10.40;99.90;;;;;;4846799;29;20242;-82
2023/08/28 01:25:54;;;;;;;6.82;3.78;;;10.40;99.90;;;;;;4845712;29;20233;-82
2023/08/28 01:28:21;;;;;;;4.73;3.70;;;10.40;99.90;;;;;;4846103;29;20189;-82
2023/08/28 01:30:48;;;;;;;5.90;4.10;;;10.40;99.90;;;;;;4845995;29;20200;-82
2023/08/28 01:33:15;;;;;;;4.68;4.28;;;10.40;99.90;;;;;;4845973;29;20262;-82
2023/08/28 01:35:42;;;;;;;4.75;3.92;;;10.40;99.90;;;;;;4845981;29;20680;-82
2023/08/28 01:38:19;;;;;;;5.93;4.75;;;10.40;99.90;;;;;;4846088;29;20196;-82
2023/08/28 01:41:20;;;;;;;4.82;4.07;;;10.40;99.90;;;;;;4845826;29;20662;-82
2023/08/28 01:43:52;;;;;;;4.22;3.83;;;10.30;99.90;;;;;;4788687;29;20195;-82
2023/08/28 01:46:19;;;;;;;4.20;3.80;;;10.40;99.90;;;;;;4836901;29;20567;-82
2023/08/28 01:48:50;;;;;;;5.20;4.07;;;10.40;99.90;;;;;;4845535;29;20197;-82
2023/08/28 01:51:16;;;;;;;4.35;3.95;;;10.40;99.90;;;;;;4845772;29;20184;-82
2023/08/28 01:53:42;;;;;;;5.13;4.07;;;10.40;99.90;;;;;;4845308;29;20197;-82
2023/08/28 01:56:07;;;;;;;5.37;4.87;;;10.30;99.90;;;;;;4845130;29;20197;-82
2023/08/28 01:58:56;;;;;;;4.77;3.83;;;10.40;99.90;;;;;;4845594;29;20281;-81
2023/08/28 02:01:22;;;;;;;3.70;3.35;;;10.30;99.90;;;;;;4845522;29;20189;-82
2023/08/28 02:03:49;;;;;;;5.25;4.28;;;10.30;99.90;;;;;;4844045;29;20226;-82
2023/08/28 02:06:15;;;;;;;4.25;3.85;;;10.30;99.90;;;;;;4845103;29;20216;-82
2023/08/28 02:08:41;;;;;;;4.53;4.13;;;10.30;99.90;;;;;;4845326;29;20289;-85
2023/08/28 02:11:07;;;;;;;5.80;4.90;;;10.30;99.90;;;;;;4844713;29;20272;-82
2023/08/28 02:13:32;;;;;;;19.50;4.73;;;10.20;99.90;;;;;;4845022;29;20437;-82
2023/08/28 02:16:00;;;;;;;5.63;4.37;;;10.20;99.90;;;;;;4844623;29;20428;-82
2023/08/28 02:18:26;;;;;;;5.07;4.38;;;10.20;99.90;;;;;;4844784;29;20484;-82
2023/08/28 02:20:52;;;;;;;5.40;4.30;;;10.20;99.90;;;;;;4844752;29;20642;-82
2023/08/28 02:23:17;;;;;;;6.15;4.78;;;10.20;99.90;;;;;;4845023;29;20184;-82
2023/08/28 02:25:44;;;;;;;4.53;4.13;;;10.20;99.90;;;;;;4844595;29;20302;-83
2023/08/28 02:28:10;;;;;;;6.03;4.60;;;10.20;99.90;;;;;;4844910;29;20193;-82
2023/08/28 02:30:36;;;;;;;6.30;5.47;;;10.20;99.90;;;;;;4844716;29;20216;-82
2023/08/28 02:33:01;;;;;;;7.03;5.47;;;10.30;99.90;;;;;;4844528;29;20618;-82
2023/08/28 02:35:27;;;;;;;7.40;5.60;;;10.30;99.90;;;;;;4844770;29;20196;-82
2023/08/28 02:37:52;;;;;;;6.20;5.37;;;10.30;99.90;;;;;;4844393;29;20188;-82
2023/08/28 02:40:18;;;;;;;6.50;5.57;;;10.20;99.90;;;;;;4844188;29;20189;-82
2023/08/28 02:42:43;;;;;;;4.93;4.43;;;10.20;99.90;;;;;;4844715;29;20189;-82
2023/08/28 02:45:09;;;;;;;7.83;5.10;;;10.20;99.90;;;;;;4844926;29;20668;-81
2023/08/28 02:47:35;;;;;;;5.13;4.37;;;10.10;99.90;;;;;;4844760;29;20247;-82
2023/08/28 02:50:01;;;;;;;5.80;5.07;;;10.10;99.90;;;;;;4844638;29;20201;-82
2023/08/28 02:52:26;;;;;;;5.13;4.63;;;10.00;99.90;;;;;;4844477;29;20188;-81
2023/08/28 02:54:52;;;;;;;5.40;4.50;;;10.00;99.90;;;;;;4844451;29;20193;-82
2023/08/28 02:57:18;;;;;;;4.87;4.37;;;10.00;99.90;;;;;;4844374;29;20239;-81
2023/08/28 02:59:44;;;;;;;6.00;4.85;;;10.00;99.90;;;;;;4844469;29;20638;-84
2023/08/28 03:02:09;;;;;;;5.27;3.80;;;10.00;99.90;;;;;;4844660;29;20192;-81
2023/08/28 03:04:35;;;;;;;5.20;4.70;;;10.00;99.90;;;;;;4843178;29;20442;-81
2023/08/28 03:07:01;;;;;;;5.80;4.10;;;10.00;99.90;;;;;;4843860;29;20208;-82
2023/08/28 03:09:27;;;;;;;5.63;5.03;;;10.00;99.90;;;;;;4844722;29;20203;-82
2023/08/28 03:11:52;;;;;;;5.73;4.07;;;9.90;99.90;;;;;;4843867;29;20196;-81
2023/08/28 03:14:18;;;;;;;4.93;4.53;;;10.00;99.90;;;;;;4843806;29;20189;-81
2023/08/28 03:16:43;;;;;;;6.07;5.30;;;10.00;99.90;;;;;;4844432;29;20217;-82
2023/08/28 03:19:09;;;;;;;5.13;4.50;;;10.00;99.90;;;;;;4843922;29;20638;-82
2023/08/28 03:21:35;;;;;;;5.17;4.67;;;9.90;99.90;;;;;;4843968;29;20548;-81
2023/08/28 03:24:00;;;;;;;4.78;4.38;;;9.90;99.90;;;;;;4843908;29;20317;-82
2023/08/28 03:26:28;;;;;;;4.93;4.43;;;9.90;99.90;;;;;;4844198;29;20708;-81
2023/08/28 03:28:54;;;;;;;5.00;3.92;;;10.00;99.90;;;;;;4843837;29;20225;-82
2023/08/28 03:31:19;;;;;;;5.47;4.60;;;10.00;99.90;;;;;;4844205;29;20200;-82
2023/08/28 03:33:45;;;;;;;4.70;4.30;;;10.00;99.90;;;;;;4844098;29;20189;-82
2023/08/28 03:36:10;;;;;;;4.97;3.50;;;9.90;99.90;;;;;;4844560;29;20200;-82
2023/08/28 03:38:36;;;;;;;5.07;4.13;;;9.90;99.90;;;;;;4845142;29;20193;-81
2023/08/28 03:41:02;;;;;;;5.03;4.30;;;9.90;99.90;;;;;;4847280;29;20201;-82
2023/08/28 03:43:27;;;;;;;6.07;4.73;;;9.80;99.90;;;;;;4844571;29;20204;-82
2023/08/28 03:45:53;;;;;;;5.50;5.00;;;9.80;99.90;;;;;;4843951;29;20469;-82
2023/08/28 03:48:18;;;;;;;5.33;4.43;;;9.80;99.90;;;;;;4844549;29;20279;-81
2023/08/28 03:50:45;;;;;;;5.43;4.57;;;9.80;99.90;;;;;;4843913;29;20196;-81
2023/08/28 03:53:11;;;;;;;7.50;4.50;;;9.80;99.90;;;;;;4843670;29;20650;-81
2023/08/28 03:55:37;;;;;;;6.10;5.50;;;9.80;99.90;;;;;;4844031;29;20197;-80
2023/08/28 03:58:03;;;;;;;5.53;5.03;;;9.80;99.90;;;;;;4843916;29;20301;-81
2023/08/28 04:00:31;;;;;;;7.72;5.25;;;9.90;99.90;;;;;;4843054;29;20192;-81
2023/08/28 04:02:56;;;;;;;5.28;4.72;;;9.90;99.90;;;;;;4844167;29;20268;-81
2023/08/28 04:05:22;;;;;;;5.83;5.10;;;9.90;99.90;;;;;;4843930;29;20212;-81
2023/08/28 04:07:49;;;;;;;6.30;4.67;;;9.90;99.90;;;;;;4847535;29;20193;-85
2023/08/28 04:10:14;;;;;;;9.18;5.00;;;9.90;99.90;;;;;;4851362;29;20230;-80
2023/08/28 04:12:40;;;;;;;6.20;5.00;;;9.80;99.90;;;;;;4846395;29;20678;-81
2023/08/28 04:15:08;;;;;;;4.60;4.20;;;9.70;99.90;;;;;;4843519;29;20240;-81
2023/08/28 04:17:34;;;;;;;5.60;4.20;;;9.70;99.90;;;;;;4843393;29;20365;-81
2023/08/28 04:20:12;;;;;;;5.78;4.75;;;9.70;99.90;;;;;;4843032;29;20185;-81
2023/08/28 04:22:43;;;;;;;7.43;4.65;;;9.70;99.90;;;;;;4843946;29;20618;-81
2023/08/28 04:25:09;;;;;;;5.78;4.57;;;9.60;99.90;;;;;;4843364;29;20190;-82
2023/08/28 04:27:35;;;;;;;5.00;4.50;;;9.60;99.90;;;;;;4846648;29;20288;-81
2023/08/28 04:30:01;;;;;;;4.70;4.30;;;9.60;99.90;;;;;;4846478;29;20189;-82
2023/08/28 04:32:26;;;;;;;7.57;5.60;;;9.60;99.90;;;;;;4846886;29;20214;-82
2023/08/28 04:34:52;;;;;;;6.50;4.80;;;9.60;99.90;;;;;;4845989;29;20223;-82
2023/08/28 04:37:17;;;;;;;6.80;5.40;;;9.50;99.90;;;;;;4846528;29;20196;-82
2023/08/28 04:39:45;;;;;;;7.00;5.00;;;9.50;99.90;;;;;;4846475;29;20268;-82
2023/08/28 04:42:14;;;;;;;7.80;4.72;;;9.50;99.90;;;;;;4846547;29;20189;-82
2023/08/28 04:44:40;;;;;;;7.13;5.18;;;9.50;99.90;;;;;;4846649;29;20193;-82
2023/08/28 04:47:05;;;;;;;6.50;5.03;;;9.40;99.90;;;;;;4846170;29;20217;-82
2023/08/28 04:49:31;;;;;;;8.33;6.30;;;9.40;99.90;;;;;;4846681;29;20213;-82
2023/08/28 04:51:56;;;;;;;7.10;4.83;;;9.50;99.90;;;;;;4846368;29;20272;-82
2023/08/28 04:54:22;;;;;;;8.50;6.13;;;9.50;99.90;;;;;;4844647;29;20191;-82
2023/08/28 04:56:48;;;;;;;5.50;4.93;;;9.50;99.90;;;;;;4845703;29;20244;-82
2023/08/28 04:59:14;;;;;;;5.28;4.78;;;9.50;99.90;;;;;;4846037;29;20188;-82
2023/08/28 05:01:39;;;;;;;6.23;5.60;;;9.50;99.90;;;;;;4846423;29;20197;-82
2023/08/28 05:04:05;;;;;;;5.30;4.80;;;9.60;99.90;;;;;;4845878;29;20208;-81
2023/08/28 05:06:31;;;;;;;5.43;4.93;;;9.60;99.90;;;;;;4846062;29;20216;-81
2023/08/28 05:08:56;;;;;;;5.60;5.10;;;9.60;99.90;;;;;;4846225;29;20193;-82
2023/08/28 05:11:22;;;;;;;5.93;5.43;;;9.60;99.90;;;;;;4846161;29;20188;-81
2023/08/28 05:13:48;;;;;;;6.37;4.93;;;9.60;99.90;;;;;;4846226;29;20642;-80
2023/08/28 05:16:13;;;;;;;9.90;5.63;;;9.60;99.90;;;;;;4846513;29;20193;-80
2023/08/28 05:18:39;;;;;;;8.10;5.70;;;9.60;99.90;;;;;;4846712;29;20189;-80
2023/08/28 05:21:05;;;;;;;7.10;4.80;;;9.60;99.90;;;;;;4846059;29;20193;-80
2023/08/28 05:23:31;;;;;;;7.47;5.60;;;9.60;99.90;;;;;;4846444;29;20204;-80
2023/08/28 05:25:56;;;;;;;6.63;5.73;;;9.70;99.90;;;;;;4845445;29;20236;-81
2023/08/28 05:28:22;;;;;;;9.13;5.93;;;9.70;99.90;;;;;;4845517;29;20578;-80
2023/08/28 05:30:48;;;;;;;6.70;6.00;;;9.70;99.90;;;;;;4845742;29;20192;-80
2023/08/28 05:33:13;;;;;;;12.40;6.80;;;9.80;99.90;;;;;;4845574;29;20263;-80
2023/08/28 05:35:39;;;;;;;8.67;5.70;;;9.90;99.90;;;;;;4845436;29;20284;-80
2023/08/28 05:38:06;;;;;;;8.50;6.20;;;9.90;99.90;;;;;;4845388;29;20209;-81
2023/08/28 05:40:32;;;;;;;8.67;6.57;;;10.00;99.90;;;;;;4846097;29;20254;-81
2023/08/28 05:42:57;;;;;;;7.77;5.87;;;10.00;99.90;;;;;;4845552;29;20907;-82
2023/08/28 05:45:23;;;;;;;6.60;6.00;;;10.00;99.90;;;;;;4844113;29;20422;-81
2023/08/28 05:47:48;;;;;;;7.37;6.43;;;10.10;99.90;;;;;;4846084;29;20193;-81
2023/08/28 05:50:14;;;;;;;11.10;6.17;;;10.10;99.90;;;;;;4845795;29;20553;-81
2023/08/28 05:52:40;;;;;;;7.70;6.55;;;10.20;99.90;;;;;;4845596;29;20185;-81
2023/08/28 05:55:06;;;;;;;7.10;6.40;;;10.20;99.90;;;;;;4845640;29;20196;-81
2023/08/28 05:57:31;;;;;;;8.30;6.47;;;10.30;99.90;;;;;;4844831;29;20279;-82
2023/08/28 05:59:57;;;;;;;7.30;6.60;;;10.30;99.90;;;;;;4845108;29;20193;-82
2023/08/28 06:02:23;;;;;;;9.23;7.30;;;10.40;99.90;;;;;;4845366;29;20185;-82
2023/08/28 06:04:48;;;;;;;10.30;7.70;;;10.50;99.90;;;;;;4845713;29;20543;-82
2023/08/28 06:07:14;;;;;;;8.47;6.90;;;10.60;99.90;;;;;;4845021;29;20208;-82
2023/08/28 06:09:41;;;;;;;8.73;7.13;;;10.60;99.90;;;;;;4845453;29;20204;-81
2023/08/28 06:12:07;;;;;;;8.60;7.65;;;10.70;99.90;;;;;;4845057;29;20566;-82
2023/08/28 06:14:33;;;;;;;7.50;6.73;;;10.80;99.90;;;;;;4845634;29;20185;-82
2023/08/28 06:16:59;;;;;;;7.60;6.80;;;10.80;99.90;;;;;;4845512;29;20189;-82
2023/08/28 06:19:25;;;;;;;13.80;7.60;;;10.90;99.90;;;;;;4845084;29;20657;-82
2023/08/28 06:21:50;;;;;;;7.80;7.10;;;10.90;99.90;;;;;;4845339;29;20220;-81
2023/08/28 06:24:16;;;;;;;7.77;6.87;;;11.00;99.90;;;;;;4845079;29;20200;-81
2023/08/28 06:26:42;;;;;;;8.03;7.23;;;11.10;99.90;;;;;;4845061;29;20252;-82
2023/08/28 06:29:07;;;;;;;8.20;7.40;;;11.20;99.90;;;;;;4844817;29;20250;-82
2023/08/28 06:31:33;;;;;;;8.03;7.17;;;11.20;99.90;;;;;;4845113;29;20418;-82
2023/08/28 06:33:59;;;;;;;9.00;7.57;;;11.20;99.90;;;;;;4845056;29;20246;-82
2023/08/28 06:36:24;;;;;;;11.20;7.20;;;11.30;99.90;;;;;;4845198;29;20194;-81
2023/08/28 06:38:52;;;;;;;9.73;7.73;;;11.40;99.90;;;;;;4844855;29;20233;-82
2023/08/28 06:41:18;;;;;;;10.00;8.13;;;11.40;99.90;;;;;;4844484;29;20193;-81
2023/08/28 06:43:44;;;;;;;12.60;8.50;;;11.50;99.90;;;;;;4843436;29;20494;-82
2023/08/28 06:46:09;;;;;;;10.33;7.90;;;11.50;99.90;;;;;;4844546;29;20470;-82
2023/08/28 06:48:35;;;;;;;15.93;8.03;;;11.60;99.90;;;;;;4844882;29;20197;-82
2023/08/28 06:51:01;;;;;;;8.90;7.87;;;11.80;99.90;;;;;;4844628;29;20212;-82
2023/08/28 06:53:26;;;;;;;12.43;8.30;;;11.80;99.90;;;;;;4843856;29;20185;-82
2023/08/28 06:55:52;;;;;;;7.70;6.80;;;11.80;99.90;;;;;;4845051;29;20193;-82
2023/08/28 06:58:18;;;;;;;10.03;7.80;;;11.90;99.90;;;;;;4844548;29;20572;-82
2023/08/28 07:00:44;;;;;;;13.47;7.20;;;12.00;99.90;;;;;;4844364;29;20591;-82
2023/08/28 07:03:10;;;;;;;8.30;7.30;;;12.10;99.90;;;;;;4844658;29;20505;-82
2023/08/28 07:05:36;;;;;;;9.13;7.53;;;12.20;99.90;;;;;;4844736;29;20193;-82
2023/08/28 07:08:01;;;;;;;8.23;7.30;;;12.30;99.90;;;;;;4843009;29;20210;-82
2023/08/28 07:10:27;;;;;;;8.17;7.17;;;12.40;99.90;;;;;;4844592;29;20426;-82
2023/08/28 07:12:52;;;;;;;8.60;7.30;;;12.40;99.90;;;;;;4844301;29;20185;-81
2023/08/28 07:15:18;;;;;;;8.53;6.93;;;12.40;99.90;;;;;;4844657;29;20303;-82
2023/08/28 07:17:44;;;;;;;8.17;7.33;;;12.50;99.90;;;;;;4844660;29;20185;-81
2023/08/28 07:20:10;;;;;;;8.50;7.60;;;12.60;99.90;;;;;;4844372;29;20188;-82
2023/08/28 07:22:36;;;;;;;10.93;8.07;;;12.70;99.90;;;;;;4843181;29;20551;-82
2023/08/28 07:25:02;;;;;;;10.67;8.03;;;12.70;99.90;;;;;;4844261;29;20625;-82
2023/08/28 07:27:27;;;;;;;10.60;9.50;;;12.90;99.90;;;;;;4844152;29;20529;-82
2023/08/28 07:29:53;;;;;;;12.47;8.43;;;13.00;99.90;;;;;;4844161;29;20429;-81
2023/08/28 07:32:18;;;;;;;9.90;8.90;;;13.10;99.90;;;;;;4844367;29;20192;-82
2023/08/28 07:34:44;;;;;;;12.73;8.57;;;13.30;99.90;;;;;;4844157;29;20180;-82
2023/08/28 07:37:10;;;;;;;9.33;8.40;;;13.40;99.90;;;;;;4842847;29;20648;-82
2023/08/28 07:39:35;;;;;;;10.97;8.47;;;13.60;99.90;;;;;;4844734;29;20196;-82
2023/08/28 07:42:01;;;;;;;12.43;9.40;;;13.80;99.90;;;;;;4845084;29;20241;-84
2023/08/28 07:44:27;;;;;;;13.90;9.50;;;13.90;99.90;;;;;;4845240;29;20192;-82
2023/08/28 07:46:52;;;;;;;10.70;8.13;;;14.00;99.90;;;;;;4844261;29;20205;-82
2023/08/28 07:49:18;;;;;;;8.97;8.07;;;14.10;99.90;;;;;;4843354;29;20227;-82
2023/08/28 07:51:44;;;;;;;9.37;7.20;;;14.20;99.90;;;;;;4843889;29;20187;-82
2023/08/28 07:54:11;;;;;;;9.60;7.50;;;14.40;99.90;;;;;;4843999;29;20554;-83
2023/08/28 07:56:36;;;;;;;7.50;6.90;;;14.50;99.90;;;;;;4843610;29;20564;-83
2023/08/28 07:59:03;;;;;;;10.07;6.77;;;14.70;99.90;;;;;;4843431;29;20478;-85
2023/08/28 08:01:30;;;;;;;7.97;6.37;;;14.70;99.90;;;;;;4845203;29;20643;-83
2023/08/28 08:03:56;;;;;;;9.13;6.73;;;15.00;99.90;;;;;;4848050;29;20779;-83
2023/08/28 08:06:22;;;;;;;10.77;7.00;;;15.10;99.90;;;;;;4846907;29;20473;-83
2023/08/28 08:08:48;;;;;;;8.37;6.33;;;15.20;99.90;;;;;;4847129;29;20425;-83
2023/08/28 08:11:14;;;;;;;6.10;5.50;;;15.10;99.90;;;;;;4830859;29;20200;-83
2023/08/28 08:13:40;;;;;;;8.00;5.30;;;15.20;99.90;;;;;;4847579;29;20529;-83
2023/08/28 08:16:05;;;;;;;11.20;5.40;;;15.50;99.90;;;;;;4847136;29;20929;-84
2023/08/28 08:18:31;;;;;;;8.97;5.63;;;15.50;99.90;;;;;;4846078;29;20200;-83
2023/08/28 08:20:57;;;;;;;6.83;5.77;;;15.70;99.90;;;;;;4847095;29;20193;-83
2023/08/28 08:23:22;;;;;;;7.13;4.70;;;15.90;99.90;;;;;;4847081;29;20398;-83
2023/08/28 08:25:48;;;;;;;8.27;4.60;;;16.00;99.90;;;;;;4847538;29;20315;-83
2023/08/28 08:28:17;;;;;;;5.90;4.10;;;16.30;99.90;;;;;;4847329;29;20432;-83
2023/08/28 08:30:43;;;;;;;8.10;3.67;;;16.30;99.90;;;;;;4847047;29;20839;-83
2023/08/28 08:33:08;;;;;;;6.03;3.43;;;16.70;99.90;;;;;;4846873;29;20450;-83
2023/08/28 08:35:37;;;;;;;5.50;4.10;;;17.20;99.90;;;;;;4830550;29;20193;-83
2023/08/28 08:38:03;;;;;;;3.43;3.10;;;17.30;99.90;;;;;;4846987;29;20208;-83
2023/08/28 08:40:28;;;;;;;4.10;3.30;;;17.50;99.90;;;;;;4846931;29;20408;-83
2023/08/28 08:42:54;;;;;;;6.57;3.70;;;17.70;99.90;;;;;;4846546;29;20218;-83
2023/08/28 08:45:24;;;;;;;6.10;3.40;;;17.80;99.90;;;;;;4846850;29;20185;-83
2023/08/28 08:47:53;;;;;;;7.37;3.73;;;17.90;99.90;;;;;;4846787;29;20436;-83
2023/08/28 08:50:19;;;;;;;3.70;3.10;;;17.90;99.90;;;;;;4845161;29;20404;-83
2023/08/28 08:52:47;;;;;;;8.30;3.30;;;18.10;99.90;;;;;;4846460;29;20430;-83
2023/08/28 08:55:25;;;;;;;3.73;2.90;;;18.10;99.90;;;;;;4849304;29;20385;-84
2023/08/28 08:57:55;;;;;;;6.43;3.30;;;18.50;99.90;;;;;;4848314;29;20481;-82
2023/08/28 09:00:21;;;;;;;3.70;2.70;;;18.90;99.90;;;;;;4847148;29;20418;-84
2023/08/28 09:02:47;;;;;;;4.23;2.90;;;19.00;99.90;;;;;;4845494;29;21004;-84
2023/08/28 09:05:15;;;;;;;6.00;3.43;;;18.50;99.90;;;;;;4846753;29;20908;-83
2023/08/28 09:07:43;;;;;;;4.20;3.20;;;18.40;99.90;;;;;;4846613;29;20466;-83
2023/08/28 09:10:09;;;;;;;4.30;3.27;;;18.30;99.90;;;;;;4846446;29;20422;-83
2023/08/28 09:12:34;;;;;;;5.77;3.43;;;18.00;99.90;;;;;;4846693;29;20433;-83
2023/08/28 09:15:02;;;;;;;3.33;2.90;;;18.30;99.90;;;;;;4847092;29;20451;-82
2023/08/28 09:17:27;;;;;;;6.87;2.90;;;18.50;99.90;;;;;;4847031;29;20189;-83
2023/08/28 09:19:53;;;;;;;4.50;3.53;;;18.50;99.90;;;;;;4846842;29;20408;-83
2023/08/28 09:22:25;;;;;;;5.00;3.80;;;18.70;99.90;;;;;;4846879;29;20631;-83
2023/08/28 09:24:55;;;;;;;4.47;3.33;;;18.50;99.90;;;;;;4846984;29;20200;-83
2023/08/28 09:27:21;;;;;;;3.57;2.67;;;18.30;99.90;;;;;;4846725;29;20456;-83
2023/08/28 09:29:46;;;;;;;5.07;3.37;;;18.50;99.90;;;;;;4846933;29;20412;-83
2023/08/28 09:32:13;;;;;;;3.93;2.80;;;18.60;99.90;;;;;;4845436;29;20217;-83
2023/08/28 09:34:40;;;;;;;5.97;3.60;;;18.60;99.90;;;;;;4846595;29;20192;-83
2023/08/28 09:37:12;;;;;;;3.10;2.73;;;18.30;99.90;;;;;;4846577;29;20393;-83
2023/08/28 09:39:41;;;;;;;5.00;3.13;;;18.40;99.90;;;;;;4845053;29;20401;-83
2023/08/28 09:42:09;;;;;;;4.67;3.07;;;18.30;99.90;;;;;;4845684;29;20766;-83
2023/08/28 09:44:37;;;;;;;5.60;2.80;;;18.40;99.90;;;;;;4845825;29;20401;-83
2023/08/28 09:47:03;;;;;;;4.47;2.80;;;18.30;99.90;;;;;;4845523;29;20886;-83
2023/08/28 09:49:29;;;;;;;4.10;2.90;;;18.40;99.90;;;;;;4844963;29;20409;-83
2023/08/28 09:51:57;;;;;;;6.50;3.43;;;18.30;99.90;;;;;;4845351;29;20426;-82
2023/08/28 09:54:23;;;;;;;9.07;3.37;;;18.60;99.90;;;;;;4846342;29;20189;-82
2023/08/28 09:56:48;;;;;;;3.90;3.20;;;18.60;99.90;;;;;;4845247;29;20477;-83
2023/08/28 09:59:15;;;;;;;5.13;3.40;;;18.90;99.90;;;;;;4845977;29;20422;-83
2023/08/28 10:01:41;;;;;;;3.20;2.90;;;18.80;99.90;;;;;;4844478;29;20622;-83
2023/08/28 10:04:12;;;;;;;3.57;2.53;;;18.60;99.90;;;;;;4845931;29;20425;-83
2023/08/28 10:06:49;;;;;;;3.97;2.50;;;18.70;99.90;;;;;;4846467;29;20227;-82
2023/08/28 10:09:19;;;;;;;6.17;3.00;;;18.80;99.90;;;;;;4844993;29;20452;-83
2023/08/28 10:11:45;;;;;;;2.93;2.63;;;18.90;99.90;;;;;;4845060;29;20830;-82
2023/08/28 10:14:12;;;;;;;5.50;2.73;;;19.00;99.90;;;;;;4844634;29;20521;-83
2023/08/28 10:16:49;;;;;;;3.80;3.50;;;18.80;99.90;;;;;;4844788;29;20482;-83
2023/08/28 10:19:18;;;;;;;4.13;3.10;;;19.20;99.90;;;;;;4844792;29;20387;-83
2023/08/28 10:21:44;;;;;;;9.43;2.70;;;19.10;99.90;;;;;;4849823;29;20402;-83
2023/08/28 10:24:12;;;;;;;3.90;2.20;;;19.30;99.90;;;;;;4844906;29;20758;-83
2023/08/28 10:26:40;;;;;;;3.90;2.00;;;19.40;99.90;;;;;;4844449;29;20452;-83
2023/08/28 10:29:07;;;;;;;15.70;3.00;;;19.50;99.90;;;;;;4844154;29;20403;-83
2023/08/28 10:31:35;;;;;;;4.03;2.00;;;19.70;99.90;;;;;;4844733;29;20392;-83
2023/08/28 10:34:01;;;;;;;3.47;2.23;;;19.90;99.90;;;;;;4844523;29;20457;-83
2023/08/28 10:36:29;;;;;;;4.10;2.90;;;20.00;99.90;;;;;;4844230;29;20415;-83
2023/08/28 10:38:55;;;;;;;4.60;2.00;;;19.90;99.90;;;;;;4844568;29;20439;-83
2023/08/28 10:41:21;;;;;;;3.57;2.60;;;20.00;99.90;;;;;;4844043;29;20405;-83
2023/08/28 10:43:49;;;;;;;5.40;2.50;;;20.00;99.90;;;;;;4844420;29;20416;-83
2023/08/28 10:46:16;;;;;;;2.47;2.20;;;20.00;99.90;;;;;;4843906;29;20452;-83
2023/08/28 10:48:41;;;;;;;7.73;2.20;;;20.10;99.90;;;;;;4844546;29;20430;-83
2023/08/28 10:51:11;;;;;;;2.63;2.23;;;20.20;99.90;;;;;;4844158;29;20453;-83
2023/08/28 10:53:38;;;;;;;3.77;2.80;;;20.30;99.90;;;;;;4844434;29;20621;-83
2023/08/28 10:56:06;;;;;;;3.70;2.30;;;20.00;99.90;;;;;;4843708;29;20453;-83
2023/08/28 10:58:40;;;;;;;3.53;2.80;;;19.60;99.90;;;;;;4843980;29;20889;-83
2023/08/28 11:01:18;;;;;;;3.57;2.30;;;19.80;99.90;;;;;;4844163;29;20812;-83
2023/08/28 11:03:57;;;;;;;5.67;2.70;;;20.00;99.90;;;;;;4844297;29;20399;-83
2023/08/28 11:06:39;;;;;;;4.83;2.30;;;20.20;99.90;;;;;;4846299;29;20500;-82
2023/08/28 11:09:30;;;;;;;6.73;4.67;;;20.30;99.90;;;;;;4846341;29;20416;-82
2023/08/28 11:12:01;;;;;;;4.67;3.30;;;20.10;99.90;;;;;;4843735;29;20505;-84
2023/08/28 11:14:40;;;;;;;5.17;2.90;;;20.10;99.90;;;;;;4844061;29;20734;-84
2023/08/28 11:17:09;;;;;;;3.73;2.40;;;20.10;99.90;;;;;;4843723;29;20966;-84
2023/08/28 11:19:53;;;;;;;3.60;2.23;;;19.80;99.90;;;;;;4843221;29;20934;-83
2023/08/28 11:22:38;;;;;;;3.90;2.10;;;19.60;99.90;;;;;;4843325;29;20934;-84
2023/08/28 11:25:09;;;;;;;6.80;2.57;;;19.70;99.90;;;;;;4843432;29;20401;-84
2023/08/28 11:27:48;;;;;;;5.73;2.20;;;19.80;99.90;;;;;;4843364;29;21062;-84
2023/08/28 11:30:19;;;;;;;4.00;2.23;;;19.90;99.90;;;;;;4843537;29;20780;-84
2023/08/28 11:32:46;;;;;;;4.50;2.10;;;19.90;99.90;;;;;;4843689;29;20365;-84
2023/08/28 11:35:17;;;;;;;5.80;2.37;;;19.90;99.90;;;;;;4844515;29;20774;-84
2023/08/28 11:37:45;;;;;;;4.63;2.17;;;19.80;99.90;;;;;;4847508;29;20442;-84
2023/08/28 11:40:16;;;;;;;3.03;1.63;;;20.00;99.90;;;;;;4847497;29;20389;-84
2023/08/28 11:42:42;;;;;;;1.80;1.30;;;19.90;99.90;;;;;;4847251;29;20414;-84
2023/08/28 11:45:09;;;;;;;4.03;2.13;;;19.90;99.90;;;;;;4847406;29;20501;-84
2023/08/28 11:47:35;;;;;;;5.17;1.30;;;19.90;99.90;;;;;;4846913;29;20455;-84
2023/08/28 11:50:03;;;;;;;4.50;1.73;;;19.90;99.90;;;;;;4847349;29;20429;-84
2023/08/28 11:52:29;;;;;;;3.70;1.70;;;19.90;99.90;;;;;;4846869;29;20634;-83
2023/08/28 11:55:00;;;;;;;4.43;2.30;;;20.10;99.90;;;;;;4847421;29;20388;-84
2023/08/28 11:57:26;;;;;;;4.30;2.40;;;20.20;99.90;;;;;;4846809;29;20853;-84
2023/08/28 11:59:53;;;;;;;8.07;1.80;;;20.30;99.90;;;;;;4847111;29;20488;-84
2023/08/28 12:02:19;;;;;;;4.33;1.60;;;20.50;99.90;;;;;;4846518;29;20469;-84
2023/08/28 12:04:50;;;;;;;3.30;1.77;;;20.60;99.90;;;;;;4847185;29;20453;-84
2023/08/28 12:07:24;;;;;;;4.13;2.00;;;20.60;99.90;;;;;;4846944;29;20485;-84
2023/08/28 12:09:52;;;;;;;2.20;1.70;;;20.60;99.90;;;;;;4847324;29;20738;-84
2023/08/28 12:12:19;;;;;;;5.60;2.00;;;20.70;99.90;;;;;;4847351;29;20882;-85
2023/08/28 12:14:46;;;;;;;3.40;2.10;;;20.60;99.90;;;;;;4847234;29;20418;-83
2023/08/28 12:17:16;;;;;;;3.40;1.97;;;20.60;99.90;;;;;;4845422;29;20441;-84
2023/08/28 12:19:42;;;;;;;3.40;2.40;;;20.70;99.90;;;;;;4851857;29;20410;-83
2023/08/28 12:22:10;;;;;;;3.00;2.00;;;20.50;99.90;;;;;;4846443;29;20400;-83
2023/08/28 12:24:40;;;;;;;3.77;2.27;;;20.50;99.90;;;;;;4846427;29;20185;-83
2023/08/28 12:27:06;;;;;;;3.73;2.17;;;19.90;99.90;;;;;;4846743;29;20479;-83
2023/08/28 12:29:33;;;;;;;3.60;2.40;;;19.80;99.90;;;;;;4846565;29;20765;-83
2023/08/28 12:31:59;;;;;;;3.13;2.40;;;20.10;99.90;;;;;;4846413;29;20426;-83
2023/08/28 12:34:28;;;;;;;3.67;2.57;;;20.20;99.90;;;;;;4846439;29;20497;-83
2023/08/28 12:37:11;;;;;;;2.83;1.90;;;20.30;99.90;;;;;;4845222;29;20196;-83
2023/08/28 12:39:50;;;;;;;3.03;1.93;;;20.40;99.90;;;;;;4844897;29;20445;-83
2023/08/28 12:42:21;;;;;;;2.80;1.90;;;20.60;99.90;;;;;;4846233;29;20406;-83
2023/08/28 12:44:47;;;;;;;3.90;2.43;;;20.70;99.90;;;;;;4846502;29;20458;-84
2023/08/28 12:47:22;;;;;;;3.73;2.17;;;21.00;99.90;;;;;;4845234;29;20451;-84
2023/08/28 12:49:49;;;;;;;4.00;3.00;;;21.10;99.90;;;;;;4846216;29;20732;-83